sensor_id;sensor_type;location;lat;lon;timestamp;P1;durP1;ratioP1;P2;durP2;ratioP2
19951;SDS011;10137;49.406;19.484;2022-09-20T00:00:38;1.03;;;0.93;;
19951;SDS011;10137;49.406;19.484;2022-09-20T00:03:06;1.30;;;1.10;;
19951;SDS011;10137;49.406;19.484;2022-09-20T00:05:33;1.27;;;1.10;;
19951;SDS011;10137;49.406;19.484;2022-09-20T00:08:01;1.97;;;1.17;;
19951;SDS011;10137;49.406;19.484;2022-09-20T00:10:29;1.50;;;1.20;;
19951;SDS011;10137;49.406;19.484;2022-09-20T00:13:01;2.67;;;1.87;;
19951;SDS011;10137;49.406;19.484;2022-09-20T00:15:28;3.63;;;1.50;;
19951;SDS011;10137;49.406;19.484;2022-09-20T00:17:56;1.70;;;1.50;;
19951;SDS011;10137;49.406;19.484;2022-09-20T00:20:24;3.37;;;1.40;;
19951;SDS011;10137;49.406;19.484;2022-09-20T00:22:51;1.37;;;1.20;;
19951;SDS011;10137;49.406;19.484;2022-09-20T00:25:18;2.33;;;1.30;;
19951;SDS011;10137;49.406;19.484;2022-09-20T00:27:46;1.70;;;1.30;;
19951;SDS011;10137;49.406;19.484;2022-09-20T00:30:14;1.73;;;1.30;;
19951;SDS011;10137;49.406;19.484;2022-09-20T00:32:42;1.87;;;1.43;;
19951;SDS011;10137;49.406;19.484;2022-09-20T00:35:09;1.47;;;1.20;;
19951;SDS011;10137;49.406;19.484;2022-09-20T00:37:35;1.53;;;1.10;;
19951;SDS011;10137;49.406;19.484;2022-09-20T00:40:04;1.17;;;1.07;;
19951;SDS011;10137;49.406;19.484;2022-09-20T00:42:34;3.53;;;1.37;;
19951;SDS011;10137;49.406;19.484;2022-09-20T00:45:02;2.40;;;1.50;;
19951;SDS011;10137;49.406;19.484;2022-09-20T00:47:34;1.63;;;1.43;;
19951;SDS011;10137;49.406;19.484;2022-09-20T00:50:06;1.90;;;1.40;;
19951;SDS011;10137;49.406;19.484;2022-09-20T00:52:49;1.97;;;1.43;;
19951;SDS011;10137;49.406;19.484;2022-09-20T00:55:19;1.90;;;1.50;;
19951;SDS011;10137;49.406;19.484;2022-09-20T00:57:47;1.57;;;1.40;;
19951;SDS011;10137;49.406;19.484;2022-09-20T01:00:14;2.43;;;1.60;;
19951;SDS011;10137;49.406;19.484;2022-09-20T01:02:45;1.93;;;1.50;;
19951;SDS011;10137;49.406;19.484;2022-09-20T01:05:14;1.50;;;1.40;;
19951;SDS011;10137;49.406;19.484;2022-09-20T01:07:42;2.37;;;1.70;;
19951;SDS011;10137;49.406;19.484;2022-09-20T01:10:12;2.50;;;1.77;;
19951;SDS011;10137;49.406;19.484;2022-09-20T01:12:39;1.97;;;1.57;;
19951;SDS011;10137;49.406;19.484;2022-09-20T01:15:10;3.20;;;1.63;;
19951;SDS011;10137;49.406;19.484;2022-09-20T01:17:40;2.17;;;1.97;;
19951;SDS011;10137;49.406;19.484;2022-09-20T01:20:17;4.57;;;2.07;;
19951;SDS011;10137;49.406;19.484;2022-09-20T01:22:48;2.27;;;1.87;;
19951;SDS011;10137;49.406;19.484;2022-09-20T01:25:40;2.90;;;1.90;;
19951;SDS011;10137;49.406;19.484;2022-09-20T01:28:29;2.07;;;1.70;;
19951;SDS011;10137;49.406;19.484;2022-09-20T01:30:57;2.77;;;2.00;;
19951;SDS011;10137;49.406;19.484;2022-09-20T01:33:34;2.30;;;1.87;;
19951;SDS011;10137;49.406;19.484;2022-09-20T01:36:06;2.33;;;1.97;;
19951;SDS011;10137;49.406;19.484;2022-09-20T01:38:39;2.00;;;1.70;;
19951;SDS011;10137;49.406;19.484;2022-09-20T01:41:11;2.10;;;1.87;;
19951;SDS011;10137;49.406;19.484;2022-09-20T01:43:43;2.10;;;1.90;;
19951;SDS011;10137;49.406;19.484;2022-09-20T01:46:20;2.50;;;1.87;;
19951;SDS011;10137;49.406;19.484;2022-09-20T01:48:55;2.63;;;2.10;;
19951;SDS011;10137;49.406;19.484;2022-09-20T01:51:46;2.53;;;2.33;;
19951;SDS011;10137;49.406;19.484;2022-09-20T01:54:45;2.40;;;2.10;;
19951;SDS011;10137;49.406;19.484;2022-09-20T01:58:07;2.73;;;2.00;;
19951;SDS011;10137;49.406;19.484;2022-09-20T02:00:56;3.17;;;2.47;;
19951;SDS011;10137;49.406;19.484;2022-09-20T02:03:58;3.00;;;2.30;;
19951;SDS011;10137;49.406;19.484;2022-09-20T02:06:44;3.17;;;2.50;;
19951;SDS011;10137;49.406;19.484;2022-09-20T02:12:43;5.90;;;3.17;;
19951;SDS011;10137;49.406;19.484;2022-09-20T02:15:24;4.73;;;3.40;;
19951;SDS011;10137;49.406;19.484;2022-09-20T02:18:06;4.37;;;3.50;;
19951;SDS011;10137;49.406;19.484;2022-09-20T02:20:43;5.00;;;3.50;;
19951;SDS011;10137;49.406;19.484;2022-09-20T02:23:33;7.00;;;3.63;;
19951;SDS011;10137;49.406;19.484;2022-09-20T02:28:55;4.87;;;3.70;;
19951;SDS011;10137;49.406;19.484;2022-09-20T02:31:33;4.80;;;4.00;;
19951;SDS011;10137;49.406;19.484;2022-09-20T02:34:24;4.60;;;3.77;;
19951;SDS011;10137;49.406;19.484;2022-09-20T02:37:10;5.17;;;4.40;;
19951;SDS011;10137;49.406;19.484;2022-09-20T02:40:05;4.90;;;3.60;;
19951;SDS011;10137;49.406;19.484;2022-09-20T02:42:43;6.10;;;4.30;;
19951;SDS011;10137;49.406;19.484;2022-09-20T02:45:15;4.27;;;3.87;;
19951;SDS011;10137;49.406;19.484;2022-09-20T02:47:48;4.73;;;3.90;;
19951;SDS011;10137;49.406;19.484;2022-09-20T02:50:22;6.57;;;4.10;;
19951;SDS011;10137;49.406;19.484;2022-09-20T02:53:02;5.07;;;4.13;;
19951;SDS011;10137;49.406;19.484;2022-09-20T02:55:39;5.63;;;4.70;;
19951;SDS011;10137;49.406;19.484;2022-09-20T02:58:21;6.20;;;4.10;;
19951;SDS011;10137;49.406;19.484;2022-09-20T03:00:53;5.00;;;4.33;;
19951;SDS011;10137;49.406;19.484;2022-09-20T03:03:33;5.10;;;4.33;;
19951;SDS011;10137;49.406;19.484;2022-09-20T03:06:12;4.83;;;4.20;;
19951;SDS011;10137;49.406;19.484;2022-09-20T03:08:47;5.63;;;4.57;;
19951;SDS011;10137;49.406;19.484;2022-09-20T03:11:25;6.40;;;4.53;;
19951;SDS011;10137;49.406;19.484;2022-09-20T03:14:01;5.10;;;4.50;;
19951;SDS011;10137;49.406;19.484;2022-09-20T03:16:39;6.93;;;4.77;;
19951;SDS011;10137;49.406;19.484;2022-09-20T03:19:18;6.30;;;4.70;;
19951;SDS011;10137;49.406;19.484;2022-09-20T03:22:01;4.60;;;3.80;;
19951;SDS011;10137;49.406;19.484;2022-09-20T03:24:41;5.47;;;4.77;;
19951;SDS011;10137;49.406;19.484;2022-09-20T03:27:22;5.63;;;4.63;;
19951;SDS011;10137;49.406;19.484;2022-09-20T03:30:00;6.47;;;4.40;;
19951;SDS011;10137;49.406;19.484;2022-09-20T03:32:43;5.53;;;4.67;;
19951;SDS011;10137;49.406;19.484;2022-09-20T03:35:25;4.70;;;4.20;;
19951;SDS011;10137;49.406;19.484;2022-09-20T03:38:05;5.63;;;4.10;;
19951;SDS011;10137;49.406;19.484;2022-09-20T03:43:53;5.53;;;3.60;;
19951;SDS011;10137;49.406;19.484;2022-09-20T03:46:32;6.65;;;4.00;;
19951;SDS011;10137;49.406;19.484;2022-09-20T03:49:22;5.30;;;3.90;;
19951;SDS011;10137;49.406;19.484;2022-09-20T03:52:08;4.43;;;3.60;;
19951;SDS011;10137;49.406;19.484;2022-09-20T03:54:56;4.63;;;4.03;;
19951;SDS011;10137;49.406;19.484;2022-09-20T04:00:33;5.87;;;4.40;;
19951;SDS011;10137;49.406;19.484;2022-09-20T04:03:19;6.97;;;4.50;;
19951;SDS011;10137;49.406;19.484;2022-09-20T04:06:03;7.50;;;4.67;;
19951;SDS011;10137;49.406;19.484;2022-09-20T04:08:53;13.00;;;6.90;;
19951;SDS011;10137;49.406;19.484;2022-09-20T04:11:39;5.40;;;4.50;;
19951;SDS011;10137;49.406;19.484;2022-09-20T04:14:13;6.93;;;4.30;;
19951;SDS011;10137;49.406;19.484;2022-09-20T04:16:50;5.90;;;4.57;;
19951;SDS011;10137;49.406;19.484;2022-09-20T04:19:23;5.30;;;4.63;;
19951;SDS011;10137;49.406;19.484;2022-09-20T04:21:55;5.70;;;4.33;;
19951;SDS011;10137;49.406;19.484;2022-09-20T04:24:27;5.33;;;4.40;;
19951;SDS011;10137;49.406;19.484;2022-09-20T04:27:04;5.80;;;4.00;;
19951;SDS011;10137;49.406;19.484;2022-09-20T04:29:39;6.33;;;4.60;;
19951;SDS011;10137;49.406;19.484;2022-09-20T04:32:13;5.07;;;4.57;;
19951;SDS011;10137;49.406;19.484;2022-09-20T04:34:45;5.43;;;4.10;;
19951;SDS011;10137;49.406;19.484;2022-09-20T04:37:33;4.50;;;4.10;;
19951;SDS011;10137;49.406;19.484;2022-09-20T04:40:08;6.77;;;4.63;;
19951;SDS011;10137;49.406;19.484;2022-09-20T04:43:09;4.73;;;4.27;;
19951;SDS011;10137;49.406;19.484;2022-09-20T04:49:15;5.33;;;3.80;;
19951;SDS011;10137;49.406;19.484;2022-09-20T04:52:20;7.70;;;4.30;;
19951;SDS011;10137;49.406;19.484;2022-09-20T04:55:28;8.10;;;4.03;;
19951;SDS011;10137;49.406;19.484;2022-09-20T04:58:19;5.93;;;5.33;;
19951;SDS011;10137;49.406;19.484;2022-09-20T05:07:13;5.87;;;4.97;;
19951;SDS011;10137;49.406;19.484;2022-09-20T05:13:35;7.43;;;6.00;;
19951;SDS011;10137;49.406;19.484;2022-09-20T05:16:15;11.03;;;8.50;;
19951;SDS011;10137;49.406;19.484;2022-09-20T05:18:55;11.37;;;6.57;;
19951;SDS011;10137;49.406;19.484;2022-09-20T05:21:43;7.30;;;5.97;;
19951;SDS011;10137;49.406;19.484;2022-09-20T05:24:33;7.43;;;5.90;;
19951;SDS011;10137;49.406;19.484;2022-09-20T05:27:33;10.17;;;6.33;;
19951;SDS011;10137;49.406;19.484;2022-09-20T05:30:11;8.70;;;6.30;;
19951;SDS011;10137;49.406;19.484;2022-09-20T05:32:53;7.80;;;5.90;;
19951;SDS011;10137;49.406;19.484;2022-09-20T05:35:30;13.20;;;5.87;;
19951;SDS011;10137;49.406;19.484;2022-09-20T05:38:04;8.57;;;5.53;;
19951;SDS011;10137;49.406;19.484;2022-09-20T05:40:42;7.60;;;5.90;;
19951;SDS011;10137;49.406;19.484;2022-09-20T05:43:26;7.67;;;6.20;;
19951;SDS011;10137;49.406;19.484;2022-09-20T05:46:04;10.23;;;6.17;;
19951;SDS011;10137;49.406;19.484;2022-09-20T05:48:44;8.97;;;6.67;;
19951;SDS011;10137;49.406;19.484;2022-09-20T05:51:25;9.30;;;6.50;;
19951;SDS011;10137;49.406;19.484;2022-09-20T05:54:06;9.10;;;5.90;;
19951;SDS011;10137;49.406;19.484;2022-09-20T05:56:50;10.73;;;5.83;;
19951;SDS011;10137;49.406;19.484;2022-09-20T05:59:29;10.10;;;6.10;;
19951;SDS011;10137;49.406;19.484;2022-09-20T06:02:21;9.63;;;6.40;;
19951;SDS011;10137;49.406;19.484;2022-09-20T06:04:58;14.60;;;8.33;;
19951;SDS011;10137;49.406;19.484;2022-09-20T06:07:31;14.27;;;8.00;;
19951;SDS011;10137;49.406;19.484;2022-09-20T06:13:11;11.43;;;7.23;;
19951;SDS011;10137;49.406;19.484;2022-09-20T06:15:55;10.53;;;7.30;;
19951;SDS011;10137;49.406;19.484;2022-09-20T06:18:26;14.00;;;6.97;;
19951;SDS011;10137;49.406;19.484;2022-09-20T06:21:02;9.93;;;6.37;;
19951;SDS011;10137;49.406;19.484;2022-09-20T06:23:38;10.03;;;5.67;;
19951;SDS011;10137;49.406;19.484;2022-09-20T06:26:06;6.43;;;4.80;;
19951;SDS011;10137;49.406;19.484;2022-09-20T06:28:40;6.27;;;4.87;;
19951;SDS011;10137;49.406;19.484;2022-09-20T06:31:25;6.67;;;4.90;;
19951;SDS011;10137;49.406;19.484;2022-09-20T06:33:55;7.87;;;4.20;;
19951;SDS011;10137;49.406;19.484;2022-09-20T06:36:26;6.63;;;4.83;;
19951;SDS011;10137;49.406;19.484;2022-09-20T06:39:21;5.70;;;4.60;;
19951;SDS011;10137;49.406;19.484;2022-09-20T06:42:24;7.40;;;4.90;;
19951;SDS011;10137;49.406;19.484;2022-09-20T06:45:01;6.10;;;4.60;;
19951;SDS011;10137;49.406;19.484;2022-09-20T06:47:38;5.23;;;4.00;;
19951;SDS011;10137;49.406;19.484;2022-09-20T06:50:18;4.43;;;3.53;;
19951;SDS011;10137;49.406;19.484;2022-09-20T06:52:56;4.40;;;3.50;;
19951;SDS011;10137;49.406;19.484;2022-09-20T06:55:26;5.20;;;3.30;;
19951;SDS011;10137;49.406;19.484;2022-09-20T06:58:11;4.20;;;3.00;;
19951;SDS011;10137;49.406;19.484;2022-09-20T07:00:53;5.07;;;3.80;;
19951;SDS011;10137;49.406;19.484;2022-09-20T07:03:21;5.07;;;4.10;;
19951;SDS011;10137;49.406;19.484;2022-09-20T07:05:59;4.10;;;3.27;;
19951;SDS011;10137;49.406;19.484;2022-09-20T07:08:28;5.53;;;4.83;;
19951;SDS011;10137;49.406;19.484;2022-09-20T07:10:56;7.87;;;4.60;;
19951;SDS011;10137;49.406;19.484;2022-09-20T07:13:33;4.40;;;3.90;;
19951;SDS011;10137;49.406;19.484;2022-09-20T07:16:02;6.90;;;4.30;;
19951;SDS011;10137;49.406;19.484;2022-09-20T07:18:37;5.63;;;3.97;;
19951;SDS011;10137;49.406;19.484;2022-09-20T07:21:16;6.03;;;4.37;;
19951;SDS011;10137;49.406;19.484;2022-09-20T07:23:50;12.97;;;6.57;;
19951;SDS011;10137;49.406;19.484;2022-09-20T07:26:24;7.77;;;5.00;;
19951;SDS011;10137;49.406;19.484;2022-09-20T07:28:52;10.70;;;5.17;;
19951;SDS011;10137;49.406;19.484;2022-09-20T07:31:24;8.43;;;5.10;;
19951;SDS011;10137;49.406;19.484;2022-09-20T07:33:58;7.70;;;5.13;;
19951;SDS011;10137;49.406;19.484;2022-09-20T07:36:30;7.07;;;4.57;;
19951;SDS011;10137;49.406;19.484;2022-09-20T07:39:08;3.53;;;2.40;;
19951;SDS011;10137;49.406;19.484;2022-09-20T07:41:44;3.60;;;2.63;;
19951;SDS011;10137;49.406;19.484;2022-09-20T07:44:15;5.80;;;2.30;;
19951;SDS011;10137;49.406;19.484;2022-09-20T07:46:55;3.13;;;2.20;;
19951;SDS011;10137;49.406;19.484;2022-09-20T07:49:28;4.87;;;2.77;;
19951;SDS011;10137;49.406;19.484;2022-09-20T07:52:04;6.33;;;3.00;;
19951;SDS011;10137;49.406;19.484;2022-09-20T07:54:35;3.30;;;2.90;;
19951;SDS011;10137;49.406;19.484;2022-09-20T07:57:04;3.27;;;2.80;;
19951;SDS011;10137;49.406;19.484;2022-09-20T07:59:34;3.97;;;2.90;;
19951;SDS011;10137;49.406;19.484;2022-09-20T08:02:05;3.00;;;2.70;;
19951;SDS011;10137;49.406;19.484;2022-09-20T08:04:35;3.73;;;2.73;;
19951;SDS011;10137;49.406;19.484;2022-09-20T08:07:11;3.97;;;3.00;;
19951;SDS011;10137;49.406;19.484;2022-09-20T08:09:40;3.50;;;2.90;;
19951;SDS011;10137;49.406;19.484;2022-09-20T08:12:08;3.10;;;2.80;;
19951;SDS011;10137;49.406;19.484;2022-09-20T08:14:39;4.63;;;2.53;;
19951;SDS011;10137;49.406;19.484;2022-09-20T08:17:23;4.47;;;2.77;;
19951;SDS011;10137;49.406;19.484;2022-09-20T08:19:52;4.60;;;3.10;;
19951;SDS011;10137;49.406;19.484;2022-09-20T08:22:31;3.43;;;2.00;;
19951;SDS011;10137;49.406;19.484;2022-09-20T08:25:06;2.13;;;1.60;;
19951;SDS011;10137;49.406;19.484;2022-09-20T08:27:34;4.50;;;2.00;;
19951;SDS011;10137;49.406;19.484;2022-09-20T08:30:02;2.00;;;1.80;;
19951;SDS011;10137;49.406;19.484;2022-09-20T08:32:33;2.17;;;1.80;;
19951;SDS011;10137;49.406;19.484;2022-09-20T08:35:02;3.30;;;2.10;;
19951;SDS011;10137;49.406;19.484;2022-09-20T08:37:40;2.93;;;2.20;;
19951;SDS011;10137;49.406;19.484;2022-09-20T08:40:14;6.63;;;2.10;;
19951;SDS011;10137;49.406;19.484;2022-09-20T08:42:46;2.40;;;2.00;;
19951;SDS011;10137;49.406;19.484;2022-09-20T08:45:42;2.20;;;2.00;;
19951;SDS011;10137;49.406;19.484;2022-09-20T08:48:12;2.37;;;1.90;;
19951;SDS011;10137;49.406;19.484;2022-09-20T08:50:59;2.10;;;1.90;;
19951;SDS011;10137;49.406;19.484;2022-09-20T08:53:42;2.53;;;2.17;;
19951;SDS011;10137;49.406;19.484;2022-09-20T08:56:16;3.07;;;2.17;;
19951;SDS011;10137;49.406;19.484;2022-09-20T08:58:51;3.83;;;2.90;;
19951;SDS011;10137;49.406;19.484;2022-09-20T09:01:45;2.77;;;2.00;;
19951;SDS011;10137;49.406;19.484;2022-09-20T09:04:22;2.87;;;1.97;;
19951;SDS011;10137;49.406;19.484;2022-09-20T09:06:57;3.73;;;2.10;;
19951;SDS011;10137;49.406;19.484;2022-09-20T09:09:26;2.00;;;1.80;;
19951;SDS011;10137;49.406;19.484;2022-09-20T09:11:56;2.07;;;1.83;;
19951;SDS011;10137;49.406;19.484;2022-09-20T09:14:28;3.93;;;1.80;;
19951;SDS011;10137;49.406;19.484;2022-09-20T09:17:22;2.40;;;2.20;;
19951;SDS011;10137;49.406;19.484;2022-09-20T09:20:14;2.40;;;2.20;;
19951;SDS011;10137;49.406;19.484;2022-09-20T09:22:58;3.40;;;2.47;;
19951;SDS011;10137;49.406;19.484;2022-09-20T09:25:30;2.47;;;2.13;;
19951;SDS011;10137;49.406;19.484;2022-09-20T09:28:19;3.90;;;2.13;;
19951;SDS011;10137;49.406;19.484;2022-09-20T09:30:53;2.37;;;1.60;;
19951;SDS011;10137;49.406;19.484;2022-09-20T09:33:44;1.73;;;1.50;;
19951;SDS011;10137;49.406;19.484;2022-09-20T09:36:32;1.70;;;1.40;;
19951;SDS011;10137;49.406;19.484;2022-09-20T09:39:25;2.40;;;1.67;;
19951;SDS011;10137;49.406;19.484;2022-09-20T09:42:04;3.77;;;2.20;;
19951;SDS011;10137;49.406;19.484;2022-09-20T09:44:47;2.30;;;1.70;;
19951;SDS011;10137;49.406;19.484;2022-09-20T09:47:23;2.40;;;1.60;;
19951;SDS011;10137;49.406;19.484;2022-09-20T09:50:01;1.53;;;1.20;;
19951;SDS011;10137;49.406;19.484;2022-09-20T09:52:34;1.30;;;1.03;;
19951;SDS011;10137;49.406;19.484;2022-09-20T09:55:19;1.27;;;1.10;;
19951;SDS011;10137;49.406;19.484;2022-09-20T09:57:54;2.20;;;1.67;;
19951;SDS011;10137;49.406;19.484;2022-09-20T10:00:35;2.60;;;1.70;;
19951;SDS011;10137;49.406;19.484;2022-09-20T10:06:13;2.07;;;1.20;;
19951;SDS011;10137;49.406;19.484;2022-09-20T10:08:56;1.63;;;1.40;;
19951;SDS011;10137;49.406;19.484;2022-09-20T10:11:51;1.67;;;1.37;;
19951;SDS011;10137;49.406;19.484;2022-09-20T10:14:57;2.03;;;1.50;;
19951;SDS011;10137;49.406;19.484;2022-09-20T10:17:39;2.23;;;1.53;;
19951;SDS011;10137;49.406;19.484;2022-09-20T10:20:23;3.23;;;2.13;;
19951;SDS011;10137;49.406;19.484;2022-09-20T10:23:02;3.20;;;1.80;;
19951;SDS011;10137;49.406;19.484;2022-09-20T10:25:38;2.33;;;1.67;;
19951;SDS011;10137;49.406;19.484;2022-09-20T10:28:25;3.60;;;1.70;;
19951;SDS011;10137;49.406;19.484;2022-09-20T10:31:16;6.80;;;2.53;;
19951;SDS011;10137;49.406;19.484;2022-09-20T10:33:59;6.47;;;3.50;;
19951;SDS011;10137;49.406;19.484;2022-09-20T10:36:43;3.10;;;2.17;;
19951;SDS011;10137;49.406;19.484;2022-09-20T10:39:16;6.17;;;2.47;;
19951;SDS011;10137;49.406;19.484;2022-09-20T10:41:51;6.00;;;2.30;;
19951;SDS011;10137;49.406;19.484;2022-09-20T10:44:46;3.50;;;2.40;;
19951;SDS011;10137;49.406;19.484;2022-09-20T10:47:30;4.40;;;3.17;;
19951;SDS011;10137;49.406;19.484;2022-09-20T10:50:03;3.57;;;2.93;;
19951;SDS011;10137;49.406;19.484;2022-09-20T10:52:59;3.03;;;2.40;;
19951;SDS011;10137;49.406;19.484;2022-09-20T10:55:41;3.63;;;2.37;;
19951;SDS011;10137;49.406;19.484;2022-09-20T10:58:21;5.37;;;2.93;;
19951;SDS011;10137;49.406;19.484;2022-09-20T11:01:13;5.03;;;3.10;;
19951;SDS011;10137;49.406;19.484;2022-09-20T11:06:48;4.27;;;2.73;;
19951;SDS011;10137;49.406;19.484;2022-09-20T11:09:18;4.20;;;2.83;;
19951;SDS011;10137;49.406;19.484;2022-09-20T11:11:49;3.73;;;2.60;;
19951;SDS011;10137;49.406;19.484;2022-09-20T11:14:25;2.30;;;2.10;;
19951;SDS011;10137;49.406;19.484;2022-09-20T11:16:59;3.07;;;2.33;;
19951;SDS011;10137;49.406;19.484;2022-09-20T11:19:34;2.33;;;2.00;;
19951;SDS011;10137;49.406;19.484;2022-09-20T11:22:10;10.30;;;4.83;;
19951;SDS011;10137;49.406;19.484;2022-09-20T11:24:41;13.73;;;6.70;;
19951;SDS011;10137;49.406;19.484;2022-09-20T11:27:16;6.13;;;2.90;;
19951;SDS011;10137;49.406;19.484;2022-09-20T11:29:49;7.23;;;3.73;;
19951;SDS011;10137;49.406;19.484;2022-09-20T11:32:21;8.97;;;3.87;;
19951;SDS011;10137;49.406;19.484;2022-09-20T11:34:55;3.77;;;2.90;;
19951;SDS011;10137;49.406;19.484;2022-09-20T11:37:26;4.70;;;2.77;;
19951;SDS011;10137;49.406;19.484;2022-09-20T11:39:59;4.90;;;2.80;;
19951;SDS011;10137;49.406;19.484;2022-09-20T11:42:30;4.33;;;3.27;;
19951;SDS011;10137;49.406;19.484;2022-09-20T11:45:01;8.63;;;4.17;;
19951;SDS011;10137;49.406;19.484;2022-09-20T11:47:30;12.13;;;4.13;;
19951;SDS011;10137;49.406;19.484;2022-09-20T11:50:10;10.20;;;5.00;;
19951;SDS011;10137;49.406;19.484;2022-09-20T11:53:05;13.70;;;6.50;;
19951;SDS011;10137;49.406;19.484;2022-09-20T11:55:41;5.73;;;3.03;;
19951;SDS011;10137;49.406;19.484;2022-09-20T11:58:14;4.50;;;2.67;;
19951;SDS011;10137;49.406;19.484;2022-09-20T12:00:47;3.90;;;2.63;;
19951;SDS011;10137;49.406;19.484;2022-09-20T12:03:22;4.50;;;4.03;;
19951;SDS011;10137;49.406;19.484;2022-09-20T12:06:00;3.90;;;3.47;;
19951;SDS011;10137;49.406;19.484;2022-09-20T12:08:34;4.60;;;3.43;;
19951;SDS011;10137;49.406;19.484;2022-09-20T12:11:13;9.90;;;4.27;;
19951;SDS011;10137;49.406;19.484;2022-09-20T12:13:50;7.67;;;4.70;;
19951;SDS011;10137;49.406;19.484;2022-09-20T12:16:34;6.03;;;4.33;;
19951;SDS011;10137;49.406;19.484;2022-09-20T12:19:12;6.57;;;4.43;;
19951;SDS011;10137;49.406;19.484;2022-09-20T12:27:58;6.93;;;4.60;;
19951;SDS011;10137;49.406;19.484;2022-09-20T12:30:26;6.90;;;4.40;;
19951;SDS011;10137;49.406;19.484;2022-09-20T12:32:55;8.17;;;4.13;;
19951;SDS011;10137;49.406;19.484;2022-09-20T12:38:59;6.93;;;5.43;;
19951;SDS011;10137;49.406;19.484;2022-09-20T12:41:43;11.20;;;7.27;;
19951;SDS011;10137;49.406;19.484;2022-09-20T12:44:23;11.50;;;6.83;;
19951;SDS011;10137;49.406;19.484;2022-09-20T12:46:55;15.27;;;8.80;;
19951;SDS011;10137;49.406;19.484;2022-09-20T12:49:28;15.20;;;13.00;;
19951;SDS011;10137;49.406;19.484;2022-09-20T12:52:24;7.40;;;5.87;;
19951;SDS011;10137;49.406;19.484;2022-09-20T12:55:32;9.10;;;7.30;;
19951;SDS011;10137;49.406;19.484;2022-09-20T12:58:18;7.20;;;5.03;;
19951;SDS011;10137;49.406;19.484;2022-09-20T13:13:15;10.57;;;6.47;;
19951;SDS011;10137;49.406;19.484;2022-09-20T13:16:11;11.27;;;6.40;;
19951;SDS011;10137;49.406;19.484;2022-09-20T13:18:46;7.03;;;4.97;;
19951;SDS011;10137;49.406;19.484;2022-09-20T13:21:16;8.70;;;5.47;;
19951;SDS011;10137;49.406;19.484;2022-09-20T13:23:45;11.63;;;6.27;;
19951;SDS011;10137;49.406;19.484;2022-09-20T13:26:16;9.10;;;5.63;;
19951;SDS011;10137;49.406;19.484;2022-09-20T13:28:50;5.93;;;4.40;;
19951;SDS011;10137;49.406;19.484;2022-09-20T13:34:18;4.10;;;3.20;;
19951;SDS011;10137;49.406;19.484;2022-09-20T13:36:47;4.03;;;3.17;;
19951;SDS011;10137;49.406;19.484;2022-09-20T13:39:23;4.13;;;2.83;;
19951;SDS011;10137;49.406;19.484;2022-09-20T13:41:59;7.47;;;3.37;;
19951;SDS011;10137;49.406;19.484;2022-09-20T13:44:28;5.90;;;3.30;;
19951;SDS011;10137;49.406;19.484;2022-09-20T13:46:58;4.00;;;2.70;;
19951;SDS011;10137;49.406;19.484;2022-09-20T13:49:29;4.33;;;2.70;;
19951;SDS011;10137;49.406;19.484;2022-09-20T13:51:57;4.17;;;3.00;;
19951;SDS011;10137;49.406;19.484;2022-09-20T13:54:27;5.13;;;3.10;;
19951;SDS011;10137;49.406;19.484;2022-09-20T13:56:59;3.60;;;2.80;;
19951;SDS011;10137;49.406;19.484;2022-09-20T13:59:28;4.83;;;2.60;;
19951;SDS011;10137;49.406;19.484;2022-09-20T14:01:59;3.33;;;2.57;;
19951;SDS011;10137;49.406;19.484;2022-09-20T14:04:27;2.73;;;2.33;;
19951;SDS011;10137;49.406;19.484;2022-09-20T14:06:55;7.53;;;3.30;;
19951;SDS011;10137;49.406;19.484;2022-09-20T14:09:25;7.70;;;4.50;;
19951;SDS011;10137;49.406;19.484;2022-09-20T14:11:56;4.80;;;3.50;;
19951;SDS011;10137;49.406;19.484;2022-09-20T14:14:25;5.27;;;3.50;;
19951;SDS011;10137;49.406;19.484;2022-09-20T14:16:54;4.53;;;3.10;;
19951;SDS011;10137;49.406;19.484;2022-09-20T14:19:24;3.43;;;2.73;;
19951;SDS011;10137;49.406;19.484;2022-09-20T14:21:55;2.13;;;1.60;;
19951;SDS011;10137;49.406;19.484;2022-09-20T14:24:26;1.93;;;1.50;;
19951;SDS011;10137;49.406;19.484;2022-09-20T14:29:44;2.90;;;2.10;;
19951;SDS011;10137;49.406;19.484;2022-09-20T14:32:17;2.63;;;1.97;;
19951;SDS011;10137;49.406;19.484;2022-09-20T14:35:01;3.27;;;2.00;;
19951;SDS011;10137;49.406;19.484;2022-09-20T14:37:31;3.07;;;2.00;;
19951;SDS011;10137;49.406;19.484;2022-09-20T14:40:01;3.60;;;2.10;;
19951;SDS011;10137;49.406;19.484;2022-09-20T14:42:32;4.77;;;2.30;;
19951;SDS011;10137;49.406;19.484;2022-09-20T14:45:04;4.23;;;2.60;;
19951;SDS011;10137;49.406;19.484;2022-09-20T14:47:36;4.53;;;2.60;;
19951;SDS011;10137;49.406;19.484;2022-09-20T14:50:21;4.10;;;2.50;;
19951;SDS011;10137;49.406;19.484;2022-09-20T14:53:00;5.53;;;2.60;;
19951;SDS011;10137;49.406;19.484;2022-09-20T14:55:53;4.97;;;2.80;;
19951;SDS011;10137;49.406;19.484;2022-09-20T14:58:22;3.53;;;2.27;;
19951;SDS011;10137;49.406;19.484;2022-09-20T15:00:52;3.13;;;2.33;;
19951;SDS011;10137;49.406;19.484;2022-09-20T15:03:23;4.40;;;2.30;;
19951;SDS011;10137;49.406;19.484;2022-09-20T15:05:52;3.97;;;2.80;;
19951;SDS011;10137;49.406;19.484;2022-09-20T15:08:19;4.80;;;2.60;;
19951;SDS011;10137;49.406;19.484;2022-09-20T15:10:46;4.03;;;2.67;;
19951;SDS011;10137;49.406;19.484;2022-09-20T15:13:13;9.27;;;4.77;;
19951;SDS011;10137;49.406;19.484;2022-09-20T15:15:40;5.73;;;3.83;;
19951;SDS011;10137;49.406;19.484;2022-09-20T15:18:15;5.57;;;3.97;;
19951;SDS011;10137;49.406;19.484;2022-09-20T15:20:45;5.43;;;3.73;;
19951;SDS011;10137;49.406;19.484;2022-09-20T15:23:13;5.90;;;3.63;;
19951;SDS011;10137;49.406;19.484;2022-09-20T15:25:40;13.33;;;7.10;;
19951;SDS011;10137;49.406;19.484;2022-09-20T15:28:09;9.37;;;5.30;;
19951;SDS011;10137;49.406;19.484;2022-09-20T15:30:40;4.60;;;3.00;;
19951;SDS011;10137;49.406;19.484;2022-09-20T15:33:08;6.83;;;3.80;;
19951;SDS011;10137;49.406;19.484;2022-09-20T15:35:37;9.30;;;5.17;;
19951;SDS011;10137;49.406;19.484;2022-09-20T15:38:04;5.03;;;3.03;;
19951;SDS011;10137;49.406;19.484;2022-09-20T15:40:33;8.00;;;4.53;;
19951;SDS011;10137;49.406;19.484;2022-09-20T15:43:00;12.80;;;5.67;;
19951;SDS011;10137;49.406;19.484;2022-09-20T15:45:27;11.27;;;7.37;;
19951;SDS011;10137;49.406;19.484;2022-09-20T15:47:54;11.63;;;7.23;;
19951;SDS011;10137;49.406;19.484;2022-09-20T15:50:23;8.70;;;6.40;;
19951;SDS011;10137;49.406;19.484;2022-09-20T15:52:51;10.07;;;4.77;;
19951;SDS011;10137;49.406;19.484;2022-09-20T15:55:19;18.85;;;10.27;;
19951;SDS011;10137;49.406;19.484;2022-09-20T15:57:46;7.77;;;4.60;;
19951;SDS011;10137;49.406;19.484;2022-09-20T16:00:14;6.90;;;4.20;;
19951;SDS011;10137;49.406;19.484;2022-09-20T16:02:42;5.40;;;3.30;;
19951;SDS011;10137;49.406;19.484;2022-09-20T16:05:10;6.10;;;3.40;;
19951;SDS011;10137;49.406;19.484;2022-09-20T16:07:37;5.90;;;3.60;;
19951;SDS011;10137;49.406;19.484;2022-09-20T16:10:06;10.70;;;4.30;;
19951;SDS011;10137;49.406;19.484;2022-09-20T16:12:33;8.57;;;4.67;;
19951;SDS011;10137;49.406;19.484;2022-09-20T16:15:00;7.70;;;5.57;;
19951;SDS011;10137;49.406;19.484;2022-09-20T16:17:27;12.63;;;8.50;;
19951;SDS011;10137;49.406;19.484;2022-09-20T16:20:11;12.03;;;7.13;;
19951;SDS011;10137;49.406;19.484;2022-09-20T16:22:39;10.43;;;6.10;;
19951;SDS011;10137;49.406;19.484;2022-09-20T16:25:07;14.00;;;7.23;;
19951;SDS011;10137;49.406;19.484;2022-09-20T16:27:34;13.60;;;7.80;;
19951;SDS011;10137;49.406;19.484;2022-09-20T16:30:01;15.43;;;8.43;;